createdAt,value
2016-08-03T00:00:11.892Z,72.56
2016-08-03T00:01:11.889Z,72.66
2016-08-03T00:02:11.917Z,72.56
2016-08-03T00:03:11.917Z,72.66
2016-08-03T00:04:11.924Z,72.56
2016-08-03T00:05:11.931Z,72.85
2016-08-03T00:06:11.932Z,72.53
2016-08-03T00:07:11.937Z,72.81
2016-08-03T00:08:11.948Z,72.56
2016-08-03T00:09:11.960Z,72.63
2016-08-03T00:10:12.680Z,72.66
2016-08-03T00:11:11.978Z,72.56
2016-08-03T00:12:11.995Z,72.27
2016-08-03T00:13:12.002Z,72.43
2016-08-03T00:14:12.018Z,72.81
2016-08-03T00:15:12.018Z,72.72
2016-08-03T00:16:12.008Z,72.85
2016-08-03T00:17:12.032Z,72.81
2016-08-03T00:18:12.045Z,72.72
2016-08-03T00:19:12.047Z,72.81
2016-08-03T00:20:12.074Z,72.85
2016-08-03T00:21:12.060Z,72.81
2016-08-03T00:22:12.090Z,72.81
2016-08-03T00:23:12.071Z,72.81
2016-08-03T00:24:12.086Z,72.81
2016-08-03T00:25:12.085Z,72.81
2016-08-03T00:26:12.112Z,72.81
2016-08-03T00:27:12.127Z,72.85
2016-08-03T00:28:12.112Z,72.85
2016-08-03T00:29:12.144Z,72.91
2016-08-03T00:30:12.153Z,72.95
2016-08-03T00:31:12.151Z,72.81
2016-08-03T00:32:12.154Z,72.27
2016-08-03T00:33:12.177Z,72.85
2016-08-03T00:34:12.178Z,72.33
2016-08-03T00:35:12.187Z,72.81
2016-08-03T00:36:12.184Z,72.24
2016-08-03T00:37:12.211Z,72.81
2016-08-03T00:38:12.201Z,73.05
2016-08-03T00:39:12.225Z,72.72
2016-08-03T00:40:12.214Z,72.81
2016-08-03T00:41:12.224Z,72.81
2016-08-03T00:42:12.239Z,72.81
2016-08-03T00:43:12.243Z,72.33
2016-08-03T00:44:12.249Z,72.72
2016-08-03T00:45:12.266Z,73.01
2016-08-03T00:46:12.271Z,72.85
2016-08-03T00:47:12.298Z,72.81
2016-08-03T00:48:12.298Z,72.85
2016-08-03T00:49:12.311Z,72.91
2016-08-03T00:50:12.307Z,72.53
2016-08-03T00:51:12.322Z,72.72
2016-08-03T00:52:12.317Z,72.81
2016-08-03T00:53:12.351Z,72.33
2016-08-03T00:54:12.351Z,72.81
2016-08-03T00:55:12.345Z,72.72
2016-08-03T00:56:12.370Z,72.72
2016-08-03T00:57:12.381Z,72.81
2016-08-03T00:58:12.388Z,73.05
2016-08-03T00:59:12.391Z,72.85
2016-08-03T01:00:12.389Z,72.81
2016-08-03T01:01:12.403Z,72.81
2016-08-03T01:02:12.393Z,72.72
2016-08-03T01:03:12.414Z,72.72
2016-08-03T01:04:12.419Z,72.81
2016-08-03T01:05:12.436Z,72.81
2016-08-03T01:06:12.456Z,72.91
2016-08-03T01:07:12.443Z,72.81
2016-08-03T01:08:12.447Z,72.81
2016-08-03T01:09:12.462Z,72.81
2016-08-03T01:10:12.466Z,72.81
2016-08-03T01:11:12.473Z,72.81
2016-08-03T01:12:12.493Z,72.81
2016-08-03T01:13:12.486Z,72.81
2016-08-03T01:14:12.510Z,72.81
2016-08-03T01:15:12.510Z,72.53
2016-08-03T01:16:12.541Z,72.72
2016-08-03T01:17:12.542Z,72.91
2016-08-03T01:18:12.543Z,72.81
2016-08-03T01:19:12.558Z,72.72
2016-08-03T01:20:12.552Z,72.81
2016-08-03T01:21:12.580Z,72.72
2016-08-03T01:22:12.584Z,72.81
2016-08-03T01:23:12.580Z,72.72
2016-08-03T01:24:12.596Z,72.81
2016-08-03T01:25:12.615Z,72.72
2016-08-03T01:26:12.604Z,72.72
2016-08-03T01:27:12.611Z,72.81
2016-08-03T01:28:12.641Z,72.81
2016-08-03T01:29:12.626Z,72.91
2016-08-03T01:30:12.646Z,72.63
2016-08-03T01:31:12.652Z,72.81
2016-08-03T01:32:12.670Z,72.91
2016-08-03T01:33:12.659Z,72.81
2016-08-03T01:34:12.672Z,72.81
2016-08-03T01:35:12.687Z,72.81
2016-08-03T01:36:12.684Z,72.72
2016-08-03T01:37:12.700Z,72.63
2016-08-03T01:38:12.721Z,72.43
2016-08-03T01:39:12.716Z,72.72
2016-08-03T01:40:12.728Z,72.81
2016-08-03T01:41:12.724Z,72.91
2016-08-03T01:42:12.744Z,72.81
2016-08-03T01:43:12.739Z,72.72
2016-08-03T01:44:12.763Z,72.81
2016-08-03T01:45:12.779Z,72.81
2016-08-03T01:46:12.766Z,72.72
2016-08-03T01:47:12.790Z,72.43
2016-08-03T01:48:12.793Z,72.63
2016-08-03T01:49:12.796Z,72.43
2016-08-03T01:50:12.812Z,73.01
2016-08-03T01:51:12.806Z,72.81
2016-08-03T01:52:12.818Z,72.72
2016-08-03T01:53:12.825Z,72.43
2016-08-03T01:54:12.846Z,72.72
2016-08-03T01:55:12.838Z,72.72
2016-08-03T01:56:12.855Z,72.43
2016-08-03T01:57:12.879Z,72.81
2016-08-03T01:58:12.890Z,72.63
2016-08-03T01:59:12.869Z,72.81
2016-08-03T02:00:12.903Z,72.72
2016-08-03T02:01:12.893Z,72.53
2016-08-03T02:02:12.904Z,72.33
2016-08-03T02:03:12.907Z,72.72
2016-08-03T02:04:12.916Z,72.53
2016-08-03T02:05:12.929Z,72.33
2016-08-03T02:06:12.940Z,72.63
2016-08-03T02:07:12.954Z,72.63
2016-08-03T02:08:12.957Z,72.72
2016-08-03T02:09:12.983Z,72.72
2016-08-03T02:10:12.967Z,72.81
2016-08-03T02:11:12.996Z,72.43
2016-08-03T02:12:12.979Z,72.43
2016-08-03T02:13:13.022Z,72.72
2016-08-03T02:15:13.030Z,72.72
2016-08-03T02:16:13.043Z,72.72
2016-08-03T02:17:13.033Z,72.43
2016-08-03T02:18:13.039Z,72.53
2016-08-03T02:19:13.055Z,72.53
2016-08-03T02:20:13.046Z,72.43
2016-08-03T02:21:13.057Z,72.43
2016-08-03T02:22:13.070Z,72.43
2016-08-03T02:23:13.097Z,72.53
2016-08-03T02:24:13.079Z,72.43
2016-08-03T02:25:13.115Z,72.53
2016-08-03T02:26:13.114Z,72.43
2016-08-03T02:27:13.126Z,72.43
2016-08-03T02:28:13.128Z,72.53
2016-08-03T02:30:13.143Z,72.63
2016-08-03T02:31:13.148Z,72.63
2016-08-03T02:32:13.165Z,72.53
2016-08-03T02:33:13.174Z,72.43
2016-08-03T02:34:13.187Z,72.43
2016-08-03T02:35:13.192Z,72.53
2016-08-03T02:36:13.195Z,72.53
2016-08-03T02:37:13.186Z,72.63
2016-08-03T02:38:13.218Z,72.43
2016-08-03T02:39:13.230Z,72.72
2016-08-03T02:40:13.243Z,72.72
2016-08-03T02:41:13.239Z,72.63
2016-08-03T02:42:13.244Z,72.53
2016-08-03T02:43:13.255Z,72.72
2016-08-03T02:44:13.254Z,72.53
2016-08-03T02:45:13.263Z,72.63
2016-08-03T02:46:13.289Z,72.63
2016-08-03T02:47:13.285Z,72.53
2016-08-03T02:48:13.306Z,72.72
2016-08-03T02:49:13.291Z,72.53
2016-08-03T02:50:13.319Z,72.53
2016-08-03T02:51:13.331Z,72.53
2016-08-03T02:52:13.333Z,72.63
2016-08-03T02:53:13.341Z,72.63
2016-08-03T02:54:13.336Z,72.53
2016-08-03T02:55:13.360Z,72.53
2016-08-03T02:56:13.348Z,72.63
2016-08-03T02:57:13.367Z,72.72
2016-08-03T02:58:13.371Z,72.63
2016-08-03T02:59:13.395Z,72.72
2016-08-03T03:00:13.410Z,72.53
2016-08-03T03:01:13.388Z,72.53
2016-08-03T03:02:13.394Z,72.72
2016-08-03T03:03:13.412Z,72.63
2016-08-03T03:04:13.424Z,72.63
2016-08-03T03:05:13.432Z,72.63
2016-08-03T03:06:13.432Z,72.63
2016-08-03T03:07:13.456Z,72.72
2016-08-03T03:08:13.469Z,72.53
2016-08-03T03:09:13.455Z,72.63
2016-08-03T03:10:13.480Z,72.63
2016-08-03T03:11:13.490Z,72.24
2016-08-03T03:12:13.480Z,72.33
2016-08-03T03:13:13.501Z,72.63
2016-08-03T03:14:13.519Z,72.63
2016-08-03T03:15:13.530Z,72.63
2016-08-03T03:16:13.520Z,72.72
2016-08-03T03:17:13.545Z,72.53
2016-08-03T03:18:13.553Z,72.33
2016-08-03T03:19:13.536Z,72.33
2016-08-03T03:20:13.559Z,72.63
2016-08-03T03:21:13.577Z,72.33
2016-08-03T03:22:13.584Z,72.63
2016-08-03T03:23:13.571Z,72.24
2016-08-03T03:24:13.612Z,72.33
2016-08-03T03:25:13.603Z,72.24
2016-08-03T03:26:13.616Z,72.33
2016-08-03T03:27:13.604Z,72.53
2016-08-03T03:28:13.636Z,72.43
2016-08-03T03:29:13.643Z,72.33
2016-08-03T03:30:13.663Z,72.33
2016-08-03T03:31:13.660Z,72.53
2016-08-03T03:32:13.659Z,72.53
2016-08-03T03:33:13.660Z,72.33
2016-08-03T03:34:13.664Z,72.33
2016-08-03T03:35:13.671Z,72.53
2016-08-03T03:36:13.691Z,72.33
2016-08-03T03:37:13.686Z,72.33
2016-08-03T03:38:13.694Z,72.33
2016-08-03T03:39:13.722Z,72.43
2016-08-03T03:40:13.734Z,72.43
2016-08-03T03:41:13.719Z,72.53
2016-08-03T03:42:13.735Z,72.72
2016-08-03T03:43:13.746Z,72.33
2016-08-03T03:44:13.762Z,72.63
2016-08-03T03:45:13.765Z,72.53
2016-08-03T03:46:13.760Z,72.53
2016-08-03T03:47:13.788Z,72.53
2016-08-03T03:48:13.791Z,72.43
2016-08-03T03:49:13.788Z,72.53
2016-08-03T03:50:13.804Z,72.33
2016-08-03T03:51:13.811Z,72.63
2016-08-03T03:52:14.501Z,72.63
2016-08-03T03:53:13.835Z,72.43
2016-08-03T03:54:13.840Z,72.53
2016-08-03T03:55:13.836Z,72.63
2016-08-03T03:56:13.861Z,72.63
2016-08-03T03:57:13.871Z,72.53
2016-08-03T03:58:13.876Z,72.63
2016-08-03T03:59:13.866Z,72.53
2016-08-03T04:00:13.898Z,72.33
2016-08-03T04:01:13.883Z,72.33
2016-08-03T04:02:13.905Z,72.53
2016-08-03T04:03:13.924Z,72.63
2016-08-03T04:04:13.923Z,72.53
2016-08-03T04:05:13.936Z,72.33
2016-08-03T04:06:13.946Z,72.33
2016-08-03T04:07:13.937Z,72.43
2016-08-03T04:08:13.951Z,72.33
2016-08-03T04:09:13.976Z,72.53
2016-08-03T04:10:13.961Z,72.53
2016-08-03T04:11:13.977Z,72.43
2016-08-03T04:12:14.001Z,72.43
2016-08-03T04:13:14.001Z,72.33
2016-08-03T04:14:14.010Z,72.43
2016-08-03T04:15:14.001Z,72.63
2016-08-03T04:16:14.015Z,72.53
2016-08-03T04:17:14.031Z,72.43
2016-08-03T04:18:14.035Z,72.33
2016-08-03T04:19:14.036Z,72.63
2016-08-03T04:20:14.064Z,72.43
2016-08-03T04:21:14.072Z,72.53
2016-08-03T04:22:14.064Z,72.43
2016-08-03T04:23:14.095Z,72.43
2016-08-03T04:24:14.087Z,72.63
2016-08-03T04:25:14.103Z,72.53
2016-08-03T04:26:14.092Z,72.43
2016-08-03T04:27:14.098Z,72.53
2016-08-03T04:28:14.115Z,72.53
2016-08-03T04:29:14.131Z,72.43
2016-08-03T04:30:14.137Z,72.53
2016-08-03T04:31:14.142Z,72.33
2016-08-03T04:32:14.144Z,72.33
2016-08-03T04:33:14.167Z,72.72
2016-08-03T04:34:14.190Z,72.63
2016-08-03T04:35:14.180Z,72.63
2016-08-03T04:36:14.186Z,72.43
2016-08-03T04:37:14.185Z,72.43
2016-08-03T04:38:14.209Z,72.81
2016-08-03T04:39:14.205Z,72.81
2016-08-03T04:40:14.212Z,72.63
2016-08-03T04:41:14.237Z,72.72
2016-08-03T04:42:14.234Z,73.01
2016-08-03T04:43:14.249Z,72.43
2016-08-03T04:44:14.246Z,72.63
2016-08-03T04:45:14.272Z,72.63
2016-08-03T04:46:14.284Z,72.43
2016-08-03T04:47:14.278Z,72.63
2016-08-03T04:48:14.283Z,72.53
2016-08-03T04:49:14.307Z,72.63
2016-08-03T04:50:14.305Z,72.43
2016-08-03T04:51:14.322Z,72.53
2016-08-03T04:52:14.329Z,72.72
2016-08-03T04:53:14.334Z,72.63
2016-08-03T04:54:14.341Z,72.53
2016-08-03T04:55:14.356Z,72.24
2016-08-03T04:56:14.570Z,72.43
2016-08-03T04:57:14.371Z,72.43
2016-08-03T04:58:14.383Z,72.33
2016-08-03T04:59:14.380Z,72.53
2016-08-03T05:00:14.395Z,72.43
2016-08-03T05:01:14.394Z,72.43
2016-08-03T05:02:14.403Z,72.53
2016-08-03T05:03:14.412Z,72.33
2016-08-03T05:04:14.423Z,72.24
2016-08-03T05:05:14.418Z,72.81
2016-08-03T05:06:14.432Z,72.63
2016-08-03T05:07:14.452Z,72.81
2016-08-03T05:08:14.458Z,72.63
2016-08-03T05:09:14.467Z,72.72
2016-08-03T05:10:14.469Z,72.81
2016-08-03T05:11:14.469Z,72.91
2016-08-03T05:12:14.485Z,72.53
2016-08-03T05:13:14.493Z,72.81
2016-08-03T05:14:14.514Z,72.81
2016-08-03T05:15:14.510Z,72.91
2016-08-03T05:16:14.508Z,73.01
2016-08-03T05:17:14.520Z,72.81
2016-08-03T05:18:14.532Z,72.81
2016-08-03T05:19:14.531Z,72.81
2016-08-03T05:20:14.543Z,72.63
2016-08-03T05:21:14.561Z,72.81
2016-08-03T05:22:14.570Z,72.53
2016-08-03T05:23:14.592Z,72.33
2016-08-03T05:24:14.577Z,72.24
2016-08-03T05:25:14.586Z,72.24
2016-08-03T05:26:14.591Z,72.24
2016-08-03T05:27:14.613Z,72.24
2016-08-03T05:28:14.627Z,72.53
2016-08-03T05:29:14.627Z,72.43
2016-08-03T05:30:14.646Z,72.14
2016-08-03T05:31:14.651Z,72.43
2016-08-03T05:32:14.645Z,72.53
2016-08-03T05:33:14.658Z,72.43
2016-08-03T05:34:14.656Z,72.33
2016-08-03T05:35:14.663Z,72.43
2016-08-03T05:36:14.682Z,72.43
2016-08-03T05:37:14.701Z,72.43
2016-08-03T05:38:14.712Z,72.43
2016-08-03T05:39:14.702Z,72.53
2016-08-03T05:40:14.731Z,72.53
2016-08-03T05:41:14.731Z,72.53
2016-08-03T05:42:14.729Z,72.43
2016-08-03T05:43:14.735Z,71.95
2016-08-03T05:44:14.746Z,72.33
2016-08-03T05:45:14.772Z,72.05
2016-08-03T05:46:14.772Z,71.95
2016-08-03T05:47:14.769Z,72.14
2016-08-03T05:48:14.797Z,72.33
2016-08-03T05:49:14.786Z,72.14
2016-08-03T05:50:14.805Z,72.14
2016-08-03T05:51:14.816Z,72.05
2016-08-03T05:52:14.807Z,72.05
2016-08-03T05:53:14.825Z,72.14
2016-08-03T05:54:14.833Z,72.33
2016-08-03T05:55:14.838Z,72.05
2016-08-03T05:56:14.897Z,72.33
2016-08-03T05:57:14.864Z,72.33
2016-08-03T05:58:14.875Z,72.14
2016-08-03T05:59:14.887Z,72.24
2016-08-03T06:01:14.884Z,71.95
2016-08-03T06:02:14.910Z,72.43
2016-08-03T06:03:14.915Z,72.53
2016-08-03T06:04:14.911Z,72.53
2016-08-03T06:05:14.930Z,72.24
2016-08-03T06:06:14.931Z,72.24
2016-08-03T06:07:14.968Z,72.43
2016-08-03T06:08:14.954Z,72.53
2016-08-03T06:09:14.975Z,72.53
2016-08-03T06:10:14.958Z,72.33
2016-08-03T06:11:14.980Z,72.53
2016-08-03T06:12:14.978Z,72.33
2016-08-03T06:13:14.998Z,72.24
2016-08-03T06:14:15.006Z,72.37
2016-08-03T06:16:15.030Z,72.33
2016-08-03T06:17:15.039Z,72.43
2016-08-03T06:18:15.022Z,72.33
2016-08-03T06:19:15.049Z,72.37
2016-08-03T06:20:15.059Z,72.33
2016-08-03T06:21:15.065Z,72.14
2016-08-03T06:22:15.059Z,72.18
2016-08-03T06:23:15.087Z,71.95
2016-08-03T06:24:15.086Z,72.33
2016-08-03T06:25:15.095Z,71.95
2016-08-03T06:26:15.099Z,71.98
2016-08-03T06:27:15.111Z,71.76
2016-08-03T06:28:15.124Z,71.85
2016-08-03T06:29:15.121Z,71.85
2016-08-03T06:30:15.146Z,72.08
2016-08-03T06:31:15.146Z,72.05
2016-08-03T06:32:15.153Z,72.05
2016-08-03T06:33:15.169Z,71.98
2016-08-03T06:34:15.181Z,71.98
2016-08-03T06:35:15.187Z,72.08
2016-08-03T06:36:15.177Z,71.98
2016-08-03T06:37:15.198Z,72.08
2016-08-03T06:38:15.206Z,72.08
2016-08-03T06:39:15.214Z,72.27
2016-08-03T06:40:15.223Z,72.08
2016-08-03T06:41:15.229Z,71.98
2016-08-03T06:42:15.249Z,72.18
2016-08-03T06:43:15.241Z,72.05
2016-08-03T06:44:15.254Z,73.05
2016-08-03T06:45:15.256Z,72.56
2016-08-03T06:46:15.258Z,73.24
2016-08-03T06:47:15.289Z,73.14
2016-08-03T06:48:15.284Z,73.72
2016-08-03T06:49:15.281Z,73.33
2016-08-03T06:50:15.300Z,73.72
2016-08-03T06:51:15.340Z,73.72
2016-08-03T06:52:15.313Z,73.91
2016-08-03T06:53:15.332Z,74.01
2016-08-03T06:54:15.340Z,74.3
2016-08-03T06:55:15.338Z,74.88
2016-08-03T06:56:15.403Z,74.88
2016-08-03T06:57:15.370Z,75.16
2016-08-03T06:58:15.362Z,75.84
2016-08-03T06:59:15.381Z,75.55
2016-08-03T07:00:15.389Z,76.13
2016-08-03T07:01:15.387Z,75.93
2016-08-03T07:02:15.397Z,75.93
2016-08-03T07:03:15.405Z,75.93
2016-08-03T07:04:15.421Z,76.61
2016-08-03T07:05:15.438Z,76.23
2016-08-03T07:06:15.439Z,76.32
2016-08-03T07:07:15.459Z,76.9
2016-08-03T07:08:15.467Z,76.71
2016-08-03T07:09:15.463Z,76.8
2016-08-03T07:10:15.464Z,76.61
2016-08-03T07:11:15.481Z,77.09
2016-08-03T07:12:15.496Z,77.09
2016-08-03T07:13:15.491Z,77.38
2016-08-03T07:14:15.507Z,77.19
2016-08-03T07:15:15.523Z,77.48
2016-08-03T07:16:15.509Z,77.19
2016-08-03T07:17:15.560Z,77
2016-08-03T07:18:15.544Z,77.09
2016-08-03T07:19:15.547Z,77
2016-08-03T07:20:15.561Z,77.28
2016-08-03T07:21:15.571Z,77
2016-08-03T07:22:15.583Z,77
2016-08-03T07:23:15.584Z,77.19
2016-08-03T07:24:15.591Z,77.09
2016-08-03T07:25:15.603Z,77
2016-08-03T07:26:15.611Z,77.09
2016-08-03T07:27:15.602Z,77.09
2016-08-03T07:28:15.628Z,77.19
2016-08-03T07:29:15.630Z,77.19
2016-08-03T07:30:15.640Z,77.19
2016-08-03T07:31:15.647Z,77
2016-08-03T07:32:15.669Z,77.38
2016-08-03T07:33:15.663Z,77.28
2016-08-03T07:34:15.669Z,77.38
2016-08-03T07:35:15.688Z,77.28
2016-08-03T07:36:15.685Z,77.28
2016-08-03T07:37:15.705Z,77.28
2016-08-03T07:38:15.713Z,77.38
2016-08-03T07:39:15.703Z,77.28
2016-08-03T07:40:15.731Z,77.09
2016-08-03T07:41:15.729Z,77.28
2016-08-03T07:42:15.756Z,77.09
2016-08-03T07:43:15.758Z,77
2016-08-03T07:44:15.747Z,77
2016-08-03T07:45:15.761Z,77.09
2016-08-03T07:46:15.769Z,77.28
2016-08-03T07:47:15.782Z,77
2016-08-03T07:48:15.775Z,77.19
2016-08-03T07:49:15.781Z,76.8
2016-08-03T07:50:15.800Z,77.09
2016-08-03T07:51:15.797Z,77.03
2016-08-03T07:52:15.813Z,76.71
2016-08-03T07:53:15.829Z,76.84
2016-08-03T07:54:15.827Z,76.75
2016-08-03T07:55:15.829Z,76.55
2016-08-03T07:56:15.855Z,76.45
2016-08-03T07:57:15.862Z,76.45
2016-08-03T07:58:15.879Z,76.65
2016-08-03T07:59:15.876Z,76.65
2016-08-03T08:00:15.890Z,76.45
2016-08-03T08:01:15.887Z,76.07
2016-08-03T08:02:15.887Z,75.97
2016-08-03T08:03:15.892Z,75.88
2016-08-03T08:04:15.902Z,76.17
2016-08-03T08:05:15.911Z,76.07
2016-08-03T08:06:15.934Z,75.97
2016-08-03T08:07:15.943Z,76.07
2016-08-03T08:08:15.934Z,76.07
2016-08-03T08:09:15.955Z,75.59
2016-08-03T08:10:15.961Z,75.78
2016-08-03T08:11:15.958Z,75.68
2016-08-03T08:12:15.991Z,75.4
2016-08-03T08:13:15.988Z,75.49
2016-08-03T08:14:15.994Z,75.59
2016-08-03T08:15:16.001Z,75.49
2016-08-03T08:16:16.012Z,75.68
2016-08-03T08:17:16.020Z,74.95
2016-08-03T08:18:16.037Z,75.24
2016-08-03T08:19:16.038Z,75.24
2016-08-03T08:20:16.031Z,75.24
2016-08-03T08:21:16.055Z,75.2
2016-08-03T08:22:16.061Z,75.24
2016-08-03T08:23:16.079Z,75.14
2016-08-03T08:24:16.091Z,74.66
2016-08-03T08:25:16.095Z,74.76
2016-08-03T08:26:16.106Z,74.85
2016-08-03T08:27:16.109Z,74.76
2016-08-03T08:28:16.099Z,74.76
2016-08-03T08:29:16.123Z,75.14
2016-08-03T08:30:16.136Z,74.08
2016-08-03T08:31:16.141Z,74.27
2016-08-03T08:32:16.151Z,74.66
2016-08-03T08:33:16.160Z,74.37
2016-08-03T08:34:16.168Z,74.37
2016-08-03T08:35:16.173Z,74.27
2016-08-03T08:36:16.164Z,74.27
2016-08-03T08:37:16.192Z,74.47
2016-08-03T08:38:16.199Z,74.47
2016-08-03T08:39:16.190Z,74.47
2016-08-03T08:40:16.204Z,74.47
2016-08-03T08:41:16.209Z,74.47
2016-08-03T08:42:16.239Z,74.27
2016-08-03T08:43:16.228Z,74.27
2016-08-03T08:44:16.249Z,74.37
2016-08-03T08:45:16.252Z,74.27
2016-08-03T08:46:16.266Z,74.37
2016-08-03T08:47:16.271Z,74.27
2016-08-03T08:48:16.271Z,74.57
2016-08-03T08:49:16.291Z,74.51
2016-08-03T08:50:16.281Z,74.31
2016-08-03T08:51:16.309Z,74.41
2016-08-03T08:52:16.299Z,74.6
2016-08-03T08:53:16.322Z,74.47
2016-08-03T08:54:16.329Z,74.18
2016-08-03T08:55:16.333Z,74.21
2016-08-03T08:56:16.328Z,74.57
2016-08-03T08:57:16.358Z,74.51
2016-08-03T08:58:16.367Z,74.51
2016-08-03T08:59:16.373Z,74.51
2016-08-03T09:00:16.368Z,74.51
2016-08-03T09:01:16.379Z,74.21
2016-08-03T09:02:16.393Z,74.31
2016-08-03T09:03:16.415Z,74.51
2016-08-03T09:04:16.417Z,74.41
2016-08-03T09:05:16.424Z,74.41
2016-08-03T09:06:17.135Z,74.21
2016-08-03T09:07:16.445Z,74.12
2016-08-03T09:08:16.456Z,74.51
2016-08-03T09:09:16.469Z,74.21
2016-08-03T09:10:16.464Z,74.51
2016-08-03T09:11:16.469Z,74.41
2016-08-03T09:12:16.475Z,74.21
2016-08-03T09:13:16.484Z,74.41
2016-08-03T09:14:16.494Z,74.21
2016-08-03T09:15:16.501Z,74.31
2016-08-03T09:16:16.503Z,74.37
2016-08-03T09:17:16.526Z,74.12
2016-08-03T09:18:16.527Z,74.08
2016-08-03T09:19:16.533Z,73.5
2016-08-03T09:20:16.539Z,73.83
2016-08-03T09:21:16.533Z,73.54
2016-08-03T09:22:16.544Z,73.44
2016-08-03T09:23:16.557Z,73.06
2016-08-03T09:24:16.576Z,73.44
2016-08-03T09:25:16.564Z,73.06
2016-08-03T09:26:16.586Z,72.86
2016-08-03T09:27:16.579Z,72.77
2016-08-03T09:28:16.600Z,72.77
2016-08-03T09:29:16.606Z,72.67
2016-08-03T09:30:16.622Z,72.77
2016-08-03T09:31:16.613Z,72.86
2016-08-03T09:32:16.620Z,72.77
2016-08-03T09:33:16.632Z,72.96
2016-08-03T09:34:16.640Z,72.19
2016-08-03T09:35:16.663Z,72.48
2016-08-03T09:36:16.682Z,72.19
2016-08-03T09:37:16.677Z,72.19
2016-08-03T09:38:16.683Z,72
2016-08-03T09:39:16.671Z,72.38
2016-08-03T09:40:16.697Z,72.09
2016-08-03T09:41:16.694Z,72
2016-08-03T09:42:16.712Z,72.09
2016-08-03T09:43:16.717Z,71.9
2016-08-03T09:44:16.717Z,71.9
2016-08-03T09:45:16.736Z,72.09
2016-08-03T09:46:16.731Z,72
2016-08-03T09:47:16.741Z,72.09
2016-08-03T09:48:16.758Z,71.9
2016-08-03T09:49:16.752Z,72.09
2016-08-03T09:50:16.777Z,71.8
2016-08-03T09:51:16.765Z,71.9
2016-08-03T09:52:16.787Z,71.8
2016-08-03T09:53:16.808Z,71.8
2016-08-03T09:54:16.815Z,72.09
2016-08-03T09:55:16.817Z,72.09
2016-08-03T09:56:16.823Z,72.19
2016-08-03T09:57:16.823Z,71.8
2016-08-03T09:58:16.841Z,71.9
2016-08-03T09:59:16.847Z,71.8
2016-08-03T10:00:16.855Z,71.61
2016-08-03T10:01:16.860Z,70.94
2016-08-03T10:02:16.860Z,71.22
2016-08-03T10:03:16.871Z,71.32
2016-08-03T10:04:16.874Z,71.22
2016-08-03T10:05:16.904Z,70.87
2016-08-03T10:06:16.903Z,71.32
2016-08-03T10:07:16.914Z,71.22
2016-08-03T10:08:16.927Z,71.42
2016-08-03T10:09:16.933Z,70.78
2016-08-03T10:10:16.925Z,70.78
2016-08-03T10:11:16.932Z,70.87
2016-08-03T10:12:16.945Z,70.68
2016-08-03T10:13:16.967Z,70.87
2016-08-03T10:14:16.977Z,70.87
2016-08-03T10:15:16.985Z,70.97
2016-08-03T10:17:17.002Z,71.55
2016-08-03T10:18:17.010Z,71.36
2016-08-03T10:19:17.001Z,71.55
2016-08-03T10:20:17.043Z,71.36
2016-08-03T10:21:17.040Z,71.74
2016-08-03T10:22:17.038Z,71.84
2016-08-03T10:23:17.034Z,71.94
2016-08-03T10:24:17.045Z,71.84
2016-08-03T10:25:17.051Z,72.22
2016-08-03T10:26:17.060Z,72.13
2016-08-03T10:27:17.085Z,72.22
2016-08-03T10:28:17.097Z,72.13
2016-08-03T10:29:17.083Z,71.94
2016-08-03T10:30:17.088Z,72.03
2016-08-03T10:32:17.124Z,72.13
2016-08-03T10:33:17.138Z,71.94
2016-08-03T10:34:17.141Z,72.42
2016-08-03T10:35:17.152Z,72.61
2016-08-03T10:36:17.149Z,72.42
2016-08-03T10:37:17.144Z,72.61
2016-08-03T10:38:17.171Z,72.22
2016-08-03T10:39:17.191Z,72.22
2016-08-03T10:40:17.169Z,72.22
2016-08-03T10:41:17.177Z,71.84
2016-08-03T10:42:17.196Z,72.06
2016-08-03T10:43:17.203Z,71.84
2016-08-03T10:44:17.224Z,71.94
2016-08-03T10:45:17.240Z,71.94
2016-08-03T10:47:17.229Z,71.58
2016-08-03T10:48:17.263Z,71.88
2016-08-03T10:49:17.249Z,71.48
2016-08-03T10:50:17.259Z,70.81
2016-08-03T10:51:17.262Z,70.81
2016-08-03T10:52:17.286Z,71
2016-08-03T10:53:17.312Z,70.62
2016-08-03T10:54:17.304Z,70.52
2016-08-03T10:55:17.322Z,70.23
2016-08-03T10:56:17.315Z,70.04
2016-08-03T10:57:17.315Z,70.04
2016-08-03T10:58:17.357Z,69.84
2016-08-03T10:59:17.344Z,69.84
2016-08-03T11:00:17.346Z,69.84
2016-08-03T11:02:17.367Z,69.56
2016-08-03T11:03:17.367Z,69.36
2016-08-03T11:04:17.396Z,69.07
2016-08-03T11:05:17.405Z,68.88
2016-08-03T11:06:17.422Z,69.26
2016-08-03T11:07:17.417Z,69.74
2016-08-03T11:08:17.438Z,68.98
2016-08-03T11:09:17.433Z,69.36
2016-08-03T11:10:17.444Z,69.17
2016-08-03T11:11:17.438Z,69.26
2016-08-03T11:12:17.445Z,69.3
2016-08-03T11:13:17.462Z,69.4
2016-08-03T11:14:17.471Z,68.82
2016-08-03T11:15:17.467Z,68.91
2016-08-03T11:16:17.494Z,69.1
2016-08-03T11:17:17.498Z,69.01
2016-08-03T11:18:17.498Z,69.01
2016-08-03T11:19:17.509Z,69.1
2016-08-03T11:20:17.531Z,68.72
2016-08-03T11:21:17.540Z,69.1
2016-08-03T11:22:17.558Z,68.72
2016-08-03T11:23:17.559Z,68.91
2016-08-03T11:24:17.563Z,68.62
2016-08-03T11:25:17.560Z,68.43
2016-08-03T11:26:17.592Z,68.43
2016-08-03T11:27:17.588Z,68.72
2016-08-03T11:28:17.601Z,68.27
2016-08-03T11:29:17.607Z,67.69
2016-08-03T11:30:17.632Z,67.98
2016-08-03T11:31:17.635Z,67.94
2016-08-03T11:32:17.649Z,67.94
2016-08-03T11:33:17.646Z,67.69
2016-08-03T11:34:17.651Z,67.88
2016-08-03T11:35:17.666Z,67.69
2016-08-03T11:36:17.677Z,68.08
2016-08-03T11:37:17.698Z,67.79
2016-08-03T11:38:17.686Z,67.49
2016-08-03T11:39:17.710Z,67.59
2016-08-03T11:40:17.709Z,67.49
2016-08-03T11:41:17.735Z,67.21
2016-08-03T11:42:17.722Z,67.01
2016-08-03T11:43:17.732Z,66.91
2016-08-03T11:44:17.753Z,66.43
2016-08-03T11:45:17.768Z,66.43
2016-08-03T11:46:17.776Z,66.33
2016-08-03T11:47:17.796Z,66.05
2016-08-03T11:48:17.802Z,66.14
2016-08-03T11:49:17.798Z,66.05
2016-08-03T11:50:17.808Z,66.24
2016-08-03T11:51:17.808Z,66.05
2016-08-03T11:52:17.821Z,65.85
2016-08-03T11:53:17.831Z,65.95
2016-08-03T11:54:17.839Z,65.85
2016-08-03T11:55:17.854Z,65.69
2016-08-03T11:56:17.867Z,65.85
2016-08-03T11:57:17.874Z,66.14
2016-08-03T11:58:17.897Z,66.05
2016-08-03T11:59:17.902Z,65.95
2016-08-03T12:00:17.921Z,65.88
2016-08-03T12:01:17.917Z,66.08
2016-08-03T12:02:17.937Z,66.17
2016-08-03T12:03:17.945Z,65.69
2016-08-03T12:04:17.940Z,65.2
2016-08-03T12:05:17.970Z,65.5
2016-08-03T12:06:17.977Z,65.2
2016-08-03T12:07:17.980Z,65.11
2016-08-03T12:08:17.985Z,65.2
2016-08-03T12:09:17.995Z,65.3
2016-08-03T12:10:17.996Z,65.3
2016-08-03T12:11:18.014Z,64.92
2016-08-03T12:12:18.032Z,64.82
2016-08-03T12:13:18.026Z,65.11
2016-08-03T12:14:18.036Z,64.72
2016-08-03T12:15:18.063Z,64.92
2016-08-03T12:16:18.073Z,64.92
2016-08-03T12:17:18.066Z,64.34
2016-08-03T12:18:18.083Z,64.72
2016-08-03T12:19:18.083Z,64.62
2016-08-03T12:20:18.107Z,64.82
2016-08-03T12:21:18.107Z,64.14
2016-08-03T12:22:18.136Z,64.04
2016-08-03T12:23:18.127Z,64.14
2016-08-03T12:24:18.150Z,64.04
2016-08-03T12:25:18.154Z,63.76
2016-08-03T12:26:18.175Z,64.04
2016-08-03T12:27:18.169Z,63.76
2016-08-03T12:28:18.195Z,64.14
2016-08-03T12:29:18.196Z,63.85
2016-08-03T12:30:18.213Z,63.95
2016-08-03T12:31:18.235Z,63.18
2016-08-03T12:32:18.240Z,63.37
2016-08-03T12:33:18.239Z,63.56
2016-08-03T12:34:18.238Z,63.37
2016-08-03T12:35:18.260Z,63.56
2016-08-03T12:36:18.261Z,63.37
2016-08-03T12:37:18.279Z,63.08
2016-08-03T12:38:18.294Z,62.79
2016-08-03T12:39:18.305Z,62.88
2016-08-03T12:40:18.290Z,62.98
2016-08-03T12:41:18.326Z,62.98
2016-08-03T12:42:18.336Z,62.59
2016-08-03T12:43:18.352Z,62.79
2016-08-03T12:44:18.355Z,62.69
2016-08-03T12:45:18.349Z,62.98
2016-08-03T12:46:18.346Z,62.59
2016-08-03T12:47:18.372Z,62.79
2016-08-03T12:48:18.367Z,62.98
2016-08-03T12:49:18.383Z,63.18
2016-08-03T12:50:18.404Z,62.88
2016-08-03T12:51:18.403Z,62.88
2016-08-03T12:52:18.413Z,62.69
2016-08-03T12:53:18.428Z,62.79
2016-08-03T12:54:18.440Z,62.98
2016-08-03T12:55:18.437Z,62.69
2016-08-03T12:56:18.468Z,62.79
2016-08-03T12:57:18.507Z,62.88
2016-08-03T12:58:18.482Z,62.88
2016-08-03T12:59:18.491Z,62.79
2016-08-03T13:00:18.478Z,62.98
2016-08-03T13:01:18.499Z,62.59
2016-08-03T13:02:18.519Z,62.88